createdAt,value
2019-03-30T00:01:43.567Z,33.90
2019-03-30T00:04:13.321Z,34.40
2019-03-30T00:06:43.052Z,43.30
2019-03-30T00:09:13.021Z,47.07
2019-03-30T00:11:42.906Z,45.13
2019-03-30T00:14:12.719Z,44.93
2019-03-30T00:16:42.476Z,44.60
2019-03-30T00:19:12.215Z,43.97
2019-03-30T00:21:42.056Z,43.13
2019-03-30T00:24:11.720Z,46.40
2019-03-30T00:26:41.471Z,45.20
2019-03-30T00:29:11.253Z,47.17
2019-03-30T00:31:40.997Z,46.37
2019-03-30T00:34:10.822Z,45.40
2019-03-30T00:36:40.576Z,40.00
2019-03-30T00:39:10.352Z,45.77
2019-03-30T00:41:40.119Z,46.40
2019-03-30T00:44:09.859Z,47.23
2019-03-30T00:46:39.624Z,47.83
2019-03-30T00:49:09.440Z,46.40
2019-03-30T00:51:39.235Z,45.10
2019-03-30T00:54:08.980Z,47.20
2019-03-30T00:56:38.751Z,43.80
2019-03-30T00:59:08.519Z,45.17
2019-03-30T01:01:38.256Z,41.87
2019-03-30T01:04:08.041Z,42.47
2019-03-30T01:06:37.791Z,37.30
2019-03-30T01:09:08.625Z,33.57
2019-03-30T01:11:38.376Z,32.40
2019-03-30T01:14:08.148Z,35.27
2019-03-30T01:16:37.902Z,36.50
2019-03-30T01:19:07.660Z,43.60
2019-03-30T01:21:37.427Z,42.87
2019-03-30T01:24:07.147Z,42.73
2019-03-30T01:26:36.920Z,42.60
2019-03-30T01:29:06.682Z,41.27
2019-03-30T01:31:36.454Z,42.00
2019-03-30T01:34:06.207Z,36.23
2019-03-30T01:36:35.956Z,42.00
2019-03-30T01:39:07.372Z,42.47
2019-03-30T01:41:37.103Z,32.93
2019-03-30T01:44:06.871Z,27.07
2019-03-30T01:46:36.620Z,26.10
2019-03-30T01:49:06.380Z,22.30
2019-03-30T01:51:36.146Z,17.63
2019-03-30T01:54:05.933Z,12.33
2019-03-30T01:56:35.686Z,11.73
2019-03-30T01:59:05.410Z,11.30
2019-03-30T02:01:35.187Z,13.40
2019-03-30T02:04:04.925Z,13.30
2019-03-30T02:06:34.779Z,14.83
2019-03-30T02:09:05.819Z,12.13
2019-03-30T02:11:35.645Z,11.93
2019-03-30T02:14:05.624Z,13.53
2019-03-30T02:16:35.369Z,13.73
2019-03-30T02:19:05.142Z,14.63
2019-03-30T02:21:34.837Z,14.07
2019-03-30T02:24:04.583Z,13.60
2019-03-30T02:26:34.313Z,13.03
2019-03-30T02:29:04.169Z,14.13
2019-03-30T02:31:33.916Z,13.90
2019-03-30T02:34:03.700Z,14.83
2019-03-30T02:36:33.530Z,12.80
2019-03-30T02:39:04.570Z,14.43
2019-03-30T02:41:34.307Z,14.87
2019-03-30T02:44:04.071Z,16.90
2019-03-30T02:46:33.805Z,16.50
2019-03-30T02:49:03.572Z,19.37
2019-03-30T02:51:33.357Z,19.23
2019-03-30T02:54:03.103Z,18.63
2019-03-30T02:56:32.870Z,14.87
2019-03-30T02:59:03.225Z,16.27
2019-03-30T03:01:33.003Z,16.63
2019-03-30T03:04:02.707Z,14.90
2019-03-30T03:06:32.459Z,16.90
2019-03-30T03:09:02.277Z,15.37
2019-03-30T03:11:32.037Z,14.67
2019-03-30T03:14:01.765Z,15.03
2019-03-30T03:16:31.560Z,14.83
2019-03-30T03:19:01.264Z,16.67
2019-03-30T03:21:31.004Z,20.23
2019-03-30T03:24:00.735Z,21.83
2019-03-30T03:26:30.499Z,25.27
2019-03-30T03:29:00.256Z,22.30
2019-03-30T03:31:29.980Z,21.33
2019-03-30T03:33:59.772Z,20.10
2019-03-30T03:36:29.502Z,20.67
2019-03-30T03:38:59.205Z,18.97
2019-03-30T03:41:28.956Z,16.90
2019-03-30T03:43:58.725Z,16.77
2019-03-30T03:46:28.450Z,16.23
2019-03-30T03:48:58.194Z,15.27
2019-03-30T03:51:28.759Z,14.77
2019-03-30T03:53:58.504Z,15.63
2019-03-30T03:56:29.928Z,15.37
2019-03-30T03:59:01.925Z,14.47
2019-03-30T04:01:33.938Z,16.43
2019-03-30T04:04:05.846Z,15.13
2019-03-30T04:06:37.060Z,15.07
2019-03-30T04:09:07.666Z,14.47
2019-03-30T04:11:40.256Z,13.60
2019-03-30T04:14:12.645Z,18.10
2019-03-30T04:16:42.398Z,15.23
2019-03-30T04:19:12.140Z,16.03
2019-03-30T04:21:44.194Z,16.80
2019-03-30T04:24:13.287Z,15.70
2019-03-30T04:26:43.033Z,17.30
2019-03-30T04:29:12.789Z,16.43
2019-03-30T04:31:42.523Z,14.03
2019-03-30T04:34:12.266Z,15.47
2019-03-30T04:36:41.992Z,15.47
2019-03-30T04:39:11.816Z,16.00
2019-03-30T04:41:41.553Z,19.07
2019-03-30T04:44:11.282Z,20.90
2019-03-30T04:46:41.036Z,17.63
2019-03-30T04:49:10.750Z,18.37
2019-03-30T04:51:40.563Z,20.03
2019-03-30T04:54:10.315Z,19.53
2019-03-30T04:56:40.070Z,19.70
2019-03-30T04:59:09.783Z,17.03
2019-03-30T05:01:39.552Z,25.83
2019-03-30T05:04:09.260Z,31.17
2019-03-30T05:06:39.049Z,32.47
2019-03-30T05:09:08.803Z,32.40
2019-03-30T05:11:38.514Z,33.57
2019-03-30T05:14:08.244Z,28.70
2019-03-30T05:16:37.971Z,31.63
2019-03-30T05:19:07.726Z,26.90
2019-03-30T05:21:37.466Z,32.67
2019-03-30T05:24:07.211Z,31.57
2019-03-30T05:26:36.951Z,30.87
2019-03-30T05:29:06.786Z,33.63
2019-03-30T05:31:36.535Z,32.77
2019-03-30T05:34:06.324Z,32.23
2019-03-30T05:36:36.062Z,32.83
2019-03-30T05:39:06.511Z,32.53
2019-03-30T05:41:36.266Z,32.97
2019-03-30T05:44:05.995Z,32.97
2019-03-30T05:46:35.736Z,26.63
2019-03-30T05:49:05.468Z,29.47
2019-03-30T05:51:35.219Z,24.83
2019-03-30T05:54:04.946Z,25.27
2019-03-30T05:56:34.689Z,23.07
2019-03-30T05:59:04.411Z,24.13
2019-03-30T06:01:34.239Z,27.83
2019-03-30T06:04:03.974Z,29.87
2019-03-30T06:06:33.742Z,28.47
2019-03-30T06:09:04.359Z,28.90
2019-03-30T06:11:34.092Z,24.47
2019-03-30T06:14:03.852Z,28.30
2019-03-30T06:16:33.594Z,25.90
2019-03-30T06:19:03.434Z,27.00
2019-03-30T06:21:33.196Z,26.03
2019-03-30T06:24:03.066Z,25.37
2019-03-30T06:26:32.796Z,25.50
2019-03-30T06:29:02.575Z,26.07
2019-03-30T06:31:32.304Z,22.30
2019-03-30T06:34:02.033Z,23.90
2019-03-30T06:36:31.836Z,24.20
2019-03-30T06:39:01.561Z,23.93
2019-03-30T06:41:31.307Z,23.60
2019-03-30T06:44:01.020Z,22.57
2019-03-30T06:46:30.770Z,22.60
2019-03-30T06:49:00.568Z,22.17
2019-03-30T06:51:30.246Z,21.33
2019-03-30T06:53:59.899Z,22.27
2019-03-30T06:56:29.651Z,22.53
2019-03-30T06:58:59.373Z,22.20
2019-03-30T07:01:29.616Z,20.63
2019-03-30T07:03:59.355Z,20.33
2019-03-30T07:06:30.239Z,20.07
2019-03-30T07:09:02.466Z,19.83
2019-03-30T07:11:35.439Z,19.00
2019-03-30T07:14:05.306Z,18.53
2019-03-30T07:16:37.020Z,18.37
2019-03-30T07:19:07.320Z,17.57
2019-03-30T07:21:37.001Z,18.00
2019-03-30T07:24:06.751Z,16.10
2019-03-30T07:26:36.495Z,15.50
2019-03-30T07:29:06.259Z,16.30
2019-03-30T07:31:35.991Z,15.33
2019-03-30T07:34:05.771Z,14.07
2019-03-30T07:36:35.630Z,15.30
2019-03-30T07:39:06.706Z,15.80
2019-03-30T07:41:36.437Z,14.10
2019-03-30T07:44:06.187Z,13.63
2019-03-30T07:46:35.932Z,15.30
2019-03-30T07:49:05.653Z,13.57
2019-03-30T07:51:35.444Z,14.77
2019-03-30T07:54:05.194Z,14.07
2019-03-30T07:56:34.959Z,14.07
2019-03-30T07:59:04.704Z,15.10
2019-03-30T08:01:34.493Z,15.10
2019-03-30T08:04:04.253Z,14.97
2019-03-30T08:06:33.996Z,15.40
2019-03-30T08:09:04.608Z,15.23
2019-03-30T08:11:34.341Z,14.77
2019-03-30T08:14:04.135Z,15.20
2019-03-30T08:16:33.856Z,14.57
2019-03-30T08:19:03.690Z,16.23
2019-03-30T08:21:33.515Z,15.30
2019-03-30T08:24:03.255Z,15.23
2019-03-30T08:26:35.654Z,15.07
2019-03-30T08:29:04.406Z,15.47
2019-03-30T08:31:34.363Z,15.13
2019-03-30T08:34:04.198Z,15.87
2019-03-30T08:36:34.019Z,15.50
2019-03-30T08:39:04.861Z,16.03
2019-03-30T08:41:34.607Z,16.40
2019-03-30T08:44:04.284Z,15.27
2019-03-30T08:46:34.051Z,14.97
2019-03-30T08:49:03.843Z,15.83
2019-03-30T08:51:33.605Z,15.27
2019-03-30T08:54:03.421Z,16.13
2019-03-30T08:56:33.156Z,15.90
2019-03-30T08:59:02.883Z,15.90
2019-03-30T09:01:32.736Z,15.13
2019-03-30T09:04:02.479Z,15.90
2019-03-30T09:06:32.244Z,15.03
2019-03-30T09:09:02.077Z,15.70
2019-03-30T09:11:31.838Z,14.67
2019-03-30T09:14:01.587Z,15.63
2019-03-30T09:16:31.351Z,16.17
2019-03-30T09:19:01.088Z,16.57
2019-03-30T09:21:30.864Z,15.60
2019-03-30T09:24:09.362Z,15.37
2019-03-30T09:26:32.041Z,15.30
2019-03-30T09:29:01.765Z,15.57
2019-03-30T09:31:31.543Z,14.83
2019-03-30T09:34:01.215Z,15.23
2019-03-30T09:36:30.979Z,15.90
2019-03-30T09:39:00.727Z,15.13
2019-03-30T09:41:30.467Z,16.90
2019-03-30T09:44:00.219Z,16.60
2019-03-30T09:46:29.959Z,15.40
2019-03-30T09:48:59.739Z,16.70
2019-03-30T09:51:29.538Z,16.73
2019-03-30T09:53:59.479Z,15.90
2019-03-30T09:56:29.224Z,16.80
2019-03-30T09:58:58.988Z,16.90
2019-03-30T10:01:28.847Z,16.70
2019-03-30T10:03:58.630Z,17.20
2019-03-30T10:06:34.392Z,17.17
2019-03-30T10:08:59.791Z,17.97
2019-03-30T10:11:29.558Z,17.50
2019-03-30T10:13:59.294Z,17.50
2019-03-30T10:16:29.048Z,16.50
2019-03-30T10:18:58.795Z,16.57
2019-03-30T10:21:28.669Z,17.53
2019-03-30T10:23:58.419Z,17.87
2019-03-30T10:26:28.202Z,18.63
2019-03-30T10:28:58.104Z,18.30
2019-03-30T10:31:27.927Z,18.90
2019-03-30T10:33:57.652Z,18.77
2019-03-30T10:36:27.407Z,19.17
2019-03-30T10:38:57.155Z,18.43
2019-03-30T10:41:26.931Z,19.37
2019-03-30T10:43:56.676Z,18.33
2019-03-30T10:46:26.425Z,19.00
2019-03-30T10:48:56.488Z,18.20
2019-03-30T10:51:26.192Z,19.90
2019-03-30T10:53:55.991Z,19.27
2019-03-30T10:56:25.873Z,18.60
2019-03-30T10:58:55.639Z,20.30
2019-03-30T11:01:25.495Z,21.83
2019-03-30T11:03:55.256Z,21.53
2019-03-30T11:06:25.047Z,22.00
2019-03-30T11:08:54.828Z,20.17
2019-03-30T11:11:24.721Z,22.03
2019-03-30T11:13:54.551Z,21.30
2019-03-30T11:16:24.306Z,19.60
2019-03-30T11:18:54.184Z,17.70
2019-03-30T11:21:23.927Z,17.23
2019-03-30T11:23:53.659Z,15.97
2019-03-30T11:26:23.427Z,16.60
2019-03-30T11:28:53.215Z,17.67
2019-03-30T11:31:22.967Z,15.23
2019-03-30T11:33:52.636Z,15.83
2019-03-30T11:36:22.406Z,14.73
2019-03-30T11:38:52.163Z,15.33
2019-03-30T11:41:24.839Z,16.23
2019-03-30T11:43:53.308Z,14.03
2019-03-30T11:46:23.073Z,14.23
2019-03-30T11:48:52.897Z,14.37
2019-03-30T11:51:22.668Z,13.60
2019-03-30T11:53:52.379Z,13.20
2019-03-30T11:56:22.143Z,12.90
2019-03-30T11:58:51.906Z,13.00
2019-03-30T12:01:22.023Z,13.77
2019-03-30T12:03:51.845Z,12.93
2019-03-30T12:06:21.605Z,13.50
2019-03-30T12:08:51.351Z,13.30
2019-03-30T12:11:21.096Z,14.97
2019-03-30T12:13:50.840Z,13.60
2019-03-30T12:16:20.578Z,12.70
2019-03-30T12:18:51.294Z,12.53
2019-03-30T12:21:21.075Z,13.67
2019-03-30T12:23:52.126Z,13.83
2019-03-30T12:26:22.285Z,13.53
2019-03-30T12:28:52.122Z,13.13
2019-03-30T12:31:21.880Z,12.40
2019-03-30T12:33:51.639Z,12.70
2019-03-30T12:36:21.391Z,13.80
2019-03-30T12:38:51.230Z,12.47
2019-03-30T12:41:20.963Z,12.53
2019-03-30T12:43:51.223Z,12.28
2019-03-30T12:46:20.960Z,12.90
2019-03-30T12:48:50.747Z,12.50
2019-03-30T12:51:20.487Z,11.25
2019-03-30T12:53:50.815Z,11.87
2019-03-30T12:56:20.663Z,12.10
2019-03-30T12:58:50.508Z,11.70
2019-03-30T13:01:20.272Z,11.03
2019-03-30T13:03:50.057Z,10.37
2019-03-30T13:06:19.778Z,9.13
2019-03-30T13:08:49.546Z,10.77
2019-03-30T13:11:19.288Z,10.83
2019-03-30T13:13:49.060Z,10.40
2019-03-30T13:16:18.816Z,9.48
2019-03-30T13:18:48.559Z,9.93
2019-03-30T13:21:18.312Z,9.28
2019-03-30T13:23:48.086Z,9.60
2019-03-30T13:26:17.828Z,10.20
2019-03-30T13:28:47.588Z,9.93
2019-03-30T13:31:17.319Z,10.35
2019-03-30T13:33:47.120Z,9.43
2019-03-30T13:36:18.375Z,10.35
2019-03-30T13:38:48.110Z,10.28
2019-03-30T13:41:17.833Z,9.30
2019-03-30T13:43:47.636Z,9.80
2019-03-30T13:46:17.355Z,10.18
2019-03-30T13:48:47.136Z,9.65
2019-03-30T13:51:16.876Z,9.40
2019-03-30T13:53:46.686Z,10.00
2019-03-30T13:56:17.632Z,8.75
2019-03-30T13:58:47.567Z,9.50
2019-03-30T14:01:17.304Z,9.73
2019-03-30T14:03:47.060Z,9.20
2019-03-30T14:06:16.805Z,9.63
2019-03-30T14:08:46.570Z,9.37
2019-03-30T14:11:16.318Z,10.13
2019-03-30T14:13:46.092Z,9.07
2019-03-30T14:16:15.814Z,9.00
2019-03-30T14:18:45.608Z,8.60
2019-03-30T14:21:15.354Z,9.47
2019-03-30T14:23:45.110Z,10.67
2019-03-30T14:26:14.859Z,9.00
2019-03-30T14:28:44.615Z,10.30
2019-03-30T14:31:14.363Z,9.40
2019-03-30T14:33:44.176Z,9.67
2019-03-30T14:36:13.947Z,10.60
2019-03-30T14:38:43.790Z,10.00
2019-03-30T14:41:13.535Z,10.80
2019-03-30T14:43:43.343Z,10.50
2019-03-30T14:46:13.009Z,11.03
2019-03-30T14:48:42.795Z,9.23
2019-03-30T14:51:12.543Z,10.43
2019-03-30T14:53:42.303Z,9.97
2019-03-30T14:56:12.030Z,11.50
2019-03-30T14:58:41.777Z,10.50
2019-03-30T15:01:11.539Z,10.13
2019-03-30T15:03:41.323Z,10.10
2019-03-30T15:06:11.063Z,10.60
2019-03-30T15:08:40.883Z,10.00
2019-03-30T15:11:10.559Z,9.87
2019-03-30T15:13:40.492Z,10.33
2019-03-30T15:16:10.231Z,9.80
2019-03-30T15:18:43.050Z,9.67
2019-03-30T15:21:12.807Z,9.80
2019-03-30T15:23:42.559Z,9.37
2019-03-30T15:26:12.288Z,10.43
2019-03-30T15:28:42.919Z,9.60
2019-03-30T15:31:12.931Z,10.43
2019-03-30T15:33:42.698Z,9.90
2019-03-30T15:36:12.456Z,9.13
2019-03-30T15:38:42.243Z,9.50
2019-03-30T15:41:11.951Z,9.90
2019-03-30T15:43:41.726Z,9.27
2019-03-30T15:46:14.286Z,8.93
2019-03-30T15:48:42.916Z,10.40
2019-03-30T15:51:12.639Z,9.37
2019-03-30T15:53:42.491Z,10.33
2019-03-30T15:56:12.242Z,9.33
2019-03-30T15:58:42.007Z,9.07
2019-03-30T16:01:11.814Z,8.70
2019-03-30T16:03:41.656Z,9.17
2019-03-30T16:06:11.405Z,8.83
2019-03-30T16:08:41.152Z,9.00
2019-03-30T16:11:10.876Z,9.90
2019-03-30T16:13:40.638Z,9.60
2019-03-30T16:16:10.655Z,8.90
2019-03-30T16:18:41.003Z,8.30
2019-03-30T16:21:11.858Z,7.87
2019-03-30T16:23:42.667Z,8.10
2019-03-30T16:26:13.251Z,7.83
2019-03-30T16:28:43.302Z,8.00
2019-03-30T16:31:13.624Z,7.80
2019-03-30T16:33:46.705Z,8.40
2019-03-30T16:36:16.365Z,8.53
2019-03-30T16:38:46.833Z,8.30
2019-03-30T16:41:17.228Z,7.50
2019-03-30T16:43:47.873Z,9.17
2019-03-30T16:46:18.443Z,9.03
2019-03-30T16:48:49.260Z,8.57
2019-03-30T16:51:19.732Z,9.30
2019-03-30T16:53:50.416Z,8.90
2019-03-30T16:56:20.558Z,9.57
2019-03-30T16:58:50.750Z,9.27
2019-03-30T17:01:21.194Z,7.97
2019-03-30T17:03:51.598Z,8.93
2019-03-30T17:06:22.315Z,9.07
2019-03-30T17:08:52.794Z,23.37
2019-03-30T17:11:22.970Z,30.50
2019-03-30T17:13:53.391Z,33.40
2019-03-30T17:16:23.936Z,34.67
2019-03-30T17:18:55.067Z,35.13
2019-03-30T17:21:25.699Z,35.13
2019-03-30T17:23:56.035Z,35.00
2019-03-30T17:26:26.360Z,34.03
2019-03-30T17:28:56.467Z,35.93
2019-03-30T17:31:26.636Z,35.03
2019-03-30T17:33:56.490Z,36.23
2019-03-30T17:36:26.624Z,35.60
2019-03-30T17:38:56.781Z,34.70
2019-03-30T17:41:27.495Z,35.57
2019-03-30T17:43:58.007Z,36.57
2019-03-30T17:46:28.154Z,38.23
2019-03-30T17:48:58.183Z,38.13
2019-03-30T17:51:28.492Z,39.03
2019-03-30T17:53:59.175Z,38.33
2019-03-30T17:56:29.483Z,40.00
2019-03-30T17:58:59.733Z,40.80
2019-03-30T18:01:30.066Z,41.40
2019-03-30T18:04:00.391Z,38.73
2019-03-30T18:06:31.354Z,38.57
2019-03-30T18:09:01.979Z,41.47
2019-03-30T18:11:32.561Z,41.00
2019-03-30T18:14:02.987Z,39.33
2019-03-30T18:16:32.807Z,39.07
2019-03-30T18:19:02.599Z,37.23
2019-03-30T18:21:32.367Z,43.63
2019-03-30T18:24:02.105Z,42.73
2019-03-30T18:26:31.848Z,43.23
2019-03-30T18:29:01.633Z,43.40
2019-03-30T18:31:31.407Z,47.73
2019-03-30T18:34:01.131Z,47.57
2019-03-30T18:36:31.726Z,49.70
2019-03-30T18:39:09.511Z,47.57
2019-03-30T18:41:33.690Z,47.50
2019-03-30T18:44:03.752Z,47.40
2019-03-30T18:46:33.490Z,44.30
2019-03-30T18:49:03.239Z,45.23
2019-03-30T18:51:33.378Z,44.03
2019-03-30T18:54:03.652Z,45.63
2019-03-30T18:56:33.376Z,44.27
2019-03-30T18:59:03.132Z,44.47
2019-03-30T19:01:32.863Z,42.63
2019-03-30T19:04:02.620Z,40.77
2019-03-30T19:06:32.336Z,42.23
2019-03-30T19:09:02.111Z,41.10
2019-03-30T19:11:31.854Z,41.77
2019-03-30T19:14:01.607Z,43.83
2019-03-30T19:16:31.336Z,44.53
2019-03-30T19:19:01.160Z,43.57
2019-03-30T19:21:30.911Z,45.77
2019-03-30T19:24:00.848Z,44.73
2019-03-30T19:26:30.594Z,45.77
2019-03-30T19:29:00.282Z,45.07
2019-03-30T19:31:30.035Z,42.37
2019-03-30T19:33:59.794Z,46.33
2019-03-30T19:36:29.567Z,44.07
2019-03-30T19:38:59.304Z,44.67
2019-03-30T19:41:29.071Z,46.20
2019-03-30T19:43:58.808Z,46.53
2019-03-30T19:46:28.589Z,44.20
2019-03-30T19:48:58.296Z,45.20
2019-03-30T19:51:28.240Z,47.50
2019-03-30T19:54:00.001Z,48.60
2019-03-30T19:56:29.491Z,48.17
2019-03-30T19:59:10.061Z,46.37
2019-03-30T20:01:30.696Z,46.20
2019-03-30T20:04:00.427Z,46.20
2019-03-30T20:06:30.207Z,47.23
2019-03-30T20:08:59.978Z,51.50
2019-03-30T20:11:29.706Z,49.17
2019-03-30T20:13:59.463Z,54.07
2019-03-30T20:16:29.211Z,51.33
2019-03-30T20:19:11.380Z,51.13
2019-03-30T20:21:30.376Z,53.47
2019-03-30T20:24:00.160Z,55.00
2019-03-30T20:26:29.875Z,54.77
2019-03-30T20:28:59.618Z,49.70
2019-03-30T20:31:30.138Z,51.70
2019-03-30T20:33:59.863Z,50.90
2019-03-30T20:36:29.624Z,48.83
2019-03-30T20:38:59.380Z,45.00
2019-03-30T20:41:29.123Z,45.70
2019-03-30T20:43:58.940Z,44.83
2019-03-30T20:46:28.792Z,46.57
2019-03-30T20:48:58.558Z,43.60
2019-03-30T20:51:28.349Z,44.33
2019-03-30T20:53:58.092Z,43.00
2019-03-30T20:56:27.749Z,41.20
2019-03-30T20:58:57.486Z,43.67
2019-03-30T21:01:27.335Z,45.83
2019-03-30T21:03:57.095Z,41.30
2019-03-30T21:06:26.835Z,41.83
2019-03-30T21:08:56.575Z,40.73
2019-03-30T21:11:26.240Z,42.13
2019-03-30T21:13:56.832Z,39.77
2019-03-30T21:16:26.867Z,40.03
2019-03-30T21:18:56.592Z,41.57
2019-03-30T21:21:26.345Z,39.87
2019-03-30T21:23:56.176Z,39.20
2019-03-30T21:26:28.502Z,39.20
2019-03-30T21:28:57.338Z,40.10
2019-03-30T21:31:27.095Z,41.47
2019-03-30T21:33:56.799Z,42.53
2019-03-30T21:36:26.743Z,38.17
2019-03-30T21:38:56.495Z,40.10
2019-03-30T21:41:26.234Z,39.23
2019-03-30T21:43:56.075Z,41.23
2019-03-30T21:46:25.847Z,41.17
2019-03-30T21:48:55.602Z,41.67
2019-03-30T21:51:25.659Z,38.33
2019-03-30T21:53:55.412Z,40.13
2019-03-30T21:56:25.179Z,41.07
2019-03-30T21:58:54.909Z,38.83
2019-03-30T22:01:24.652Z,39.20
2019-03-30T22:03:54.391Z,37.20
2019-03-30T22:06:24.127Z,41.00
2019-03-30T22:08:54.639Z,41.87
2019-03-30T22:11:24.395Z,39.87
2019-03-30T22:13:54.199Z,41.63
2019-03-30T22:16:23.949Z,41.37
2019-03-30T22:18:53.680Z,43.30
2019-03-30T22:21:23.454Z,41.87
2019-03-30T22:23:53.894Z,41.67
2019-03-30T22:26:24.894Z,39.93
2019-03-30T22:28:54.763Z,41.97
2019-03-30T22:31:24.503Z,41.03
2019-03-30T22:33:54.264Z,42.63
2019-03-30T22:36:24.008Z,39.67
2019-03-30T22:38:53.751Z,42.80
2019-03-30T22:41:23.504Z,40.50
2019-03-30T22:43:53.243Z,40.63
2019-03-30T22:46:23.007Z,39.37
2019-03-30T22:48:52.733Z,43.17
2019-03-30T22:51:22.491Z,39.17
2019-03-30T22:53:52.347Z,40.00
2019-03-30T22:56:21.999Z,39.57
2019-03-30T22:58:51.730Z,39.83
2019-03-30T23:01:22.676Z,40.10
2019-03-30T23:03:52.526Z,40.23
2019-03-30T23:06:22.234Z,39.90
2019-03-30T23:08:52.054Z,39.20
2019-03-30T23:11:21.819Z,43.33
2019-03-30T23:13:51.566Z,41.30
2019-03-30T23:16:21.350Z,41.10
2019-03-30T23:18:51.074Z,43.07
2019-03-30T23:21:20.802Z,43.10
2019-03-30T23:23:50.575Z,41.30
2019-03-30T23:26:20.315Z,41.00
2019-03-30T23:28:50.023Z,39.73
2019-03-30T23:31:19.797Z,41.43
2019-03-30T23:33:49.540Z,36.30
2019-03-30T23:36:19.300Z,38.27
2019-03-30T23:38:48.927Z,38.97
2019-03-30T23:41:18.678Z,39.43
2019-03-30T23:43:48.434Z,39.53
2019-03-30T23:46:18.183Z,38.60
2019-03-30T23:48:47.975Z,38.97
2019-03-30T23:51:17.731Z,39.37
2019-03-30T23:53:47.454Z,38.63
2019-03-30T23:56:23.124Z,37.80
2019-03-30T23:58:53.203Z,39.37
